Berlin — 9HA2295 — position and weather

sailwx.info

Track history (hours):
 
Tides and Currents Weather Stations Pressure Air Temp Water Temp Dewpoint Dewpoint Depression Visibility Wind Speed Wind Dir Waves Ship Positions

Berlin

Last reported at 2014-Oct-20 22:16 UTC. Time now 2014-Oct-22 03:11 UTC.
Position N 36°25' E 024°09'.

Length 140 m; draft 5 m.

Type: Passenger vessel. MMSI: 248277000.

Date/timePositionNaut miles runAvg speedWind from/ knotsBaromVisibWave heightAir tempDewpointWater temp
2014-Oct-20 22:16N 36°25' E 024°09'1013.9
2014-Oct-20 21:33N 36°26' E 024°22'1413.9
2014-Oct-20 20:33N 36°27' E 024°39'1414.0
2014-Oct-20 19:33N 36°27' E 024°56'1414.0
2014-Oct-20 18:33N 36°28' E 025°14'10 9.5
2014-Oct-20 17:33N 36°25' E 025°25'0 0.2
2014-Oct-20 16:32N 36°25' E 025°25'0 0.3
2014-Oct-20 15:33N 36°25' E 025°25'1 0.5
2014-Oct-20 14:33N 36°26' E 025°25'2 1.8
2014-Oct-20 13:33N 36°26' E 025°23'1212.5
2014-Oct-20 12:33N 36°37' E 025°30'1414.5
2014-Oct-20 11:34N 36°48' E 025°42'8 7.6
2014-Oct-20 10:30N 36°50' E 025°51'0 0.1
2014-Oct-20 09:30N 36°50' E 025°51'0 0.0
2014-Oct-20 08:24N 36°50' E 025°51'0 0.0
2014-Oct-20 07:26N 36°50' E 025°51'0 0.0
2014-Oct-20 06:33N 36°50' E 025°51'0 0.0
2014-Oct-20 05:33N 36°50' E 025°51'0 0.0
2014-Oct-20 04:34N 36°50' E 025°52'1 0.9
2014-Oct-20 03:31N 36°50' E 025°50'9 9.2
2014-Oct-20 02:33N 36°59' E 025°51'1110.5
2014-Oct-20 01:29N 37°10' E 025°53'1010.7
2014-Oct-20 00:33N 37°19' E 025°47'1111.0
2014-Oct-19 23:33N 37°28' E 025°41'9 8.8
2014-Oct-19 22:33N 37°33' E 025°32'1110.3
2014-Oct-19 21:32N 37°31' E 025°19'3 3.4
2014-Oct-19 20:34N 37°28' E 025°19'0 0.0
2014-Oct-19 19:34N 37°28' E 025°19'0 0.0
2014-Oct-19 18:34N 37°28' E 025°19'0 0.0
2014-Oct-19 17:34N 37°28' E 025°19'0 0.0
2014-Oct-19 16:34N 37°28' E 025°19'0 0.0
2014-Oct-19 15:31N 37°28' E 025°19'0 0.0
2014-Oct-19 14:34N 37°28' E 025°19'0 0.0
2014-Oct-19 13:34N 37°28' E 025°19'0 0.0
2014-Oct-19 12:33N 37°28' E 025°19'8 8.2
2014-Oct-19 11:33N 37°27' E 025°09'10 8.6
2014-Oct-19 10:25N 37°26' E 024°57'0 0.0
2014-Oct-19 09:31N 37°26' E 024°57'0 0.0
2014-Oct-19 08:31N 37°26' E 024°57'0 0.0
2014-Oct-19 07:31N 37°26' E 024°57'0 0.0
2014-Oct-19 06:31N 37°26' E 024°57'0 0.3
2014-Oct-19 05:33N 37°26' E 024°57'8 7.7
2014-Oct-19 04:32N 37°32' E 024°50'1313.0
2014-Oct-19 03:33N 37°31' E 024°34'1313.0
2014-Oct-19 02:32N 37°30' E 024°17'1612.9
2014-Oct-19 01:19N 37°35' E 023°58'1013.0
2014-Oct-19 00:33N 37°38' E 023°46'1312.8
2014-Oct-18 23:33N 37°48' E 023°37'1312.6
2014-Oct-18 22:33N 37°51' E 023°22'1712.1
2014-Oct-18 21:11N 37°55' E 023°01'34110.4
2014-Oct-17 12:16N 37°53' E 015°49'1213.3
2014-Oct-17 11:20N 37°58' E 015°35'1215.0
2014-Oct-17 10:33N 38°10' E 015°35'2 0.3
2014-Oct-17 04:24N 38°11' E 015°33'7 8.2
2014-Oct-17 03:30N 38°17' E 015°40'1212.2
2014-Oct-17 02:32N 38°26' E 015°29'34213.6
2014-Oct-16 01:27N 42°31' E 010°17'2613.7
2014-Oct-15 23:31N 42°49' E 009°50'2814.0
2014-Oct-15 21:32N 43°05' E 009°20'1814.4
2014-Oct-15 20:18N 43°12' E 008°57'1814.3
2014-Oct-15 19:04N 43°18' E 008°34'714.3
2014-Oct-15 18:33N 43°21' E 008°25'4214.0
2014-Oct-15 15:32N 43°36' E 007°31'1111.2
2014-Oct-15 14:33N 43°41' E 007°17'1 0.5
2014-Oct-15 13:30N 43°42' E 007°17'0 0.0
2014-Oct-15 12:30N 43°42' E 007°17'0 0.0
2014-Oct-15 11:24N 43°42' E 007°17'0 0.0
2014-Oct-15 10:30N 43°42' E 007°17'0 0.0
2014-Oct-15 09:30N 43°42' E 007°17'0 0.0
2014-Oct-15 08:30N 43°42' E 007°17'1 0.7
2014-Oct-15 07:33N 43°41' E 007°17'1111.2
2014-Oct-15 06:33N 43°36' E 007°31'7314.1
2014-Oct-15 01:21N 43°09' E 009°05'1513.9
2014-Oct-15 00:17N 43°04' E 009°24'2413.9
2014-Oct-14 22:33N 42°50' E 009°50'1714.0
2014-Oct-14 21:22N 42°40' E 010°08'28910.0
2014-Oct-13 16:18N 39°08' E 014°29'5514.5
2014-Oct-13 12:29N 38°23' E 015°10'1111.5
2014-Oct-13 11:34N 38°13' E 015°15'0 0.4
2014-Oct-13 10:32N 38°13' E 015°15'0 0.0
2014-Oct-13 09:32N 38°13' E 015°15'0 0.0
2014-Oct-13 08:32N 38°13' E 015°15'0 0.0
2014-Oct-13 07:32N 38°13' E 015°15'0 0.0
2014-Oct-13 06:32N 38°13' E 015°15'0 0.0
2014-Oct-13 05:33N 38°13' E 015°15'  
Track history (hours):
 
Tides and Currents Weather Stations Pressure Air Temp Water Temp Dewpoint Dewpoint Depression Visibility Wind Speed Wind Dir Waves Ship Positions

Berlin

Last reported at 2014-Oct-20 22:16 UTC. Time now 2014-Oct-22 03:11 UTC.
Position N 36°25' E 024°09'.

Length 140 m; draft 5 m.

Type: Passenger vessel. MMSI: 248277000.

Date/timePositionNaut miles runAvg speedWind from/ knotsBaromVisibWave heightAir tempDewpointWater temp
2014-Oct-20 22:16N 36°25' E 024°09'1013.9
2014-Oct-20 21:33N 36°26' E 024°22'1413.9
2014-Oct-20 20:33N 36°27' E 024°39'1414.0
2014-Oct-20 19:33N 36°27' E 024°56'1414.0
2014-Oct-20 18:33N 36°28' E 025°14'10 9.5
2014-Oct-20 17:33N 36°25' E 025°25'0 0.2
2014-Oct-20 16:32N 36°25' E 025°25'0 0.3
2014-Oct-20 15:33N 36°25' E 025°25'1 0.5
2014-Oct-20 14:33N 36°26' E 025°25'2 1.8
2014-Oct-20 13:33N 36°26' E 025°23'1212.5
2014-Oct-20 12:33N 36°37' E 025°30'1414.5
2014-Oct-20 11:34N 36°48' E 025°42'8 7.6
2014-Oct-20 10:30N 36°50' E 025°51'0 0.1
2014-Oct-20 09:30N 36°50' E 025°51'0 0.0
2014-Oct-20 08:24N 36°50' E 025°51'0 0.0
2014-Oct-20 07:26N 36°50' E 025°51'0 0.0
2014-Oct-20 06:33N 36°50' E 025°51'0 0.0
2014-Oct-20 05:33N 36°50' E 025°51'0 0.0
2014-Oct-20 04:34N 36°50' E 025°52'1 0.9
2014-Oct-20 03:31N 36°50' E 025°50'9 9.2
2014-Oct-20 02:33N 36°59' E 025°51'1110.5
2014-Oct-20 01:29N 37°10' E 025°53'1010.7
2014-Oct-20 00:33N 37°19' E 025°47'1111.0
2014-Oct-19 23:33N 37°28' E 025°41'9 8.8
2014-Oct-19 22:33N 37°33' E 025°32'1110.3
2014-Oct-19 21:32N 37°31' E 025°19'3 3.4
2014-Oct-19 20:34N 37°28' E 025°19'0 0.0
2014-Oct-19 19:34N 37°28' E 025°19'0 0.0
2014-Oct-19 18:34N 37°28' E 025°19'0 0.0
2014-Oct-19 17:34N 37°28' E 025°19'0 0.0
2014-Oct-19 16:34N 37°28' E 025°19'0 0.0
2014-Oct-19 15:31N 37°28' E 025°19'0 0.0
2014-Oct-19 14:34N 37°28' E 025°19'0 0.0
2014-Oct-19 13:34N 37°28' E 025°19'0 0.0
2014-Oct-19 12:33N 37°28' E 025°19'8 8.2
2014-Oct-19 11:33N 37°27' E 025°09'10 8.6
2014-Oct-19 10:25N 37°26' E 024°57'0 0.0
2014-Oct-19 09:31N 37°26' E 024°57'0 0.0
2014-Oct-19 08:31N 37°26' E 024°57'0 0.0
2014-Oct-19 07:31N 37°26' E 024°57'0 0.0
2014-Oct-19 06:31N 37°26' E 024°57'0 0.3
2014-Oct-19 05:33N 37°26' E 024°57'8 7.7
2014-Oct-19 04:32N 37°32' E 024°50'1313.0
2014-Oct-19 03:33N 37°31' E 024°34'1313.0
2014-Oct-19 02:32N 37°30' E 024°17'1612.9
2014-Oct-19 01:19N 37°35' E 023°58'1013.0
2014-Oct-19 00:33N 37°38' E 023°46'1312.8
2014-Oct-18 23:33N 37°48' E 023°37'1312.6
2014-Oct-18 22:33N 37°51' E 023°22'1712.1
2014-Oct-18 21:11N 37°55' E 023°01'34110.4
2014-Oct-17 12:16N 37°53' E 015°49'1213.3
2014-Oct-17 11:20N 37°58' E 015°35'1215.0
2014-Oct-17 10:33N 38°10' E 015°35'2 0.3
2014-Oct-17 04:24N 38°11' E 015°33'7 8.2
2014-Oct-17 03:30N 38°17' E 015°40'1212.2
2014-Oct-17 02:32N 38°26' E 015°29'34213.6
2014-Oct-16 01:27N 42°31' E 010°17'2613.7
2014-Oct-15 23:31N 42°49' E 009°50'2814.0
2014-Oct-15 21:32N 43°05' E 009°20'1814.4
2014-Oct-15 20:18N 43°12' E 008°57'1814.3
2014-Oct-15 19:04N 43°18' E 008°34'714.3
2014-Oct-15 18:33N 43°21' E 008°25'4214.0
2014-Oct-15 15:32N 43°36' E 007°31'1111.2
2014-Oct-15 14:33N 43°41' E 007°17'1 0.5
2014-Oct-15 13:30N 43°42' E 007°17'0 0.0
2014-Oct-15 12:30N 43°42' E 007°17'0 0.0
2014-Oct-15 11:24N 43°42' E 007°17'0 0.0
2014-Oct-15 10:30N 43°42' E 007°17'0 0.0
2014-Oct-15 09:30N 43°42' E 007°17'0 0.0
2014-Oct-15 08:30N 43°42' E 007°17'1 0.7
2014-Oct-15 07:33N 43°41' E 007°17'1111.2
2014-Oct-15 06:33N 43°36' E 007°31'7314.1
2014-Oct-15 01:21N 43°09' E 009°05'1513.9
2014-Oct-15 00:17N 43°04' E 009°24'2413.9
2014-Oct-14 22:33N 42°50' E 009°50'1714.0
2014-Oct-14 21:22N 42°40' E 010°08'28910.0
2014-Oct-13 16:18N 39°08' E 014°29'5514.5
2014-Oct-13 12:29N 38°23' E 015°10'1111.5
2014-Oct-13 11:34N 38°13' E 015°15'0 0.4
2014-Oct-13 10:32N 38°13' E 015°15'0 0.0
2014-Oct-13 09:32N 38°13' E 015°15'0 0.0
2014-Oct-13 08:32N 38°13' E 015°15'0 0.0
2014-Oct-13 07:32N 38°13' E 015°15'0 0.0
2014-Oct-13 06:32N 38°13' E 015°15'0 0.0
2014-Oct-13 05:33N 38°13' E 015°15'  

Dump ship's entire track history